東京国際空港の過去48時間の天気

東京国際空港 (Tokyo/Intl)

現在時刻: 8/18 22:09 JST (8/18 13:09 UTC) 以下の時間は現地時間です。

過去48時間のMETAR気象情報
時間 風向 風速(m/s) 視程 気温(℃) 湿度(%) 気圧(hPa) 天気現象
18 21:30 北北西 4 10km以上 29 55 1003
18 21:00 北北西 2 10km以上 29 58 1003
18 20:30 北北西 4 10km以上 28 66 1003
18 20:00 3 10km以上 29 62 1002
18 19:30 不定 1 10km以上 29 70 1002
18 19:00 南西 2 10km以上 30 66 1002
18 18:30 西 4 10km以上 30 66 1002
18 18:00 南南西 3 10km以上 31 59 1001
18 17:30 6 10km以上 31 62 1001
18 17:00 南南西 6 10km以上 31 62 1000
18 16:30 南南西 8 10km以上 31 62 1000
18 16:00 南南西 7 10km以上 31 59 1000
18 15:30 南西 7 10km以上 31 62 1000
18 15:00 南南西 7 10km以上 31 66 1000
18 14:32 南西 8 10km以上 31 66 1000
18 14:30 南西 8 10km以上 31 66 1000
18 14:14 南西 8 10km以上 30 70 1000
18 14:00 南西 8 10km以上 29 74 1001
18 13:30 南西 9 10km以上 29 74 1001
18 13:00 南南西 8 10km以上 29 79 1002
18 12:30 南南西 9 10km以上 28 84 1001 周辺でしゅう雨
18 12:00 南南西 10 10km以上 27 94 1002
18 11:30 10 10km以上 27 94 1002 周辺でしゅう雨
18 11:00 南南西 10 10km以上 27 94 1004 弱いしゅう雨
18 10:36 南南西 9 8000m 27 89 1004 しゅう雨
18 10:30 南南西 9 10km以上 27 89 1004 弱いしゅう雨
18 10:00 南南西 8 8000m 27 89 1005 しゅう雨
18 09:40 9 6000m 27 94 1005 しゅう雨
18 09:30 7 4900m 27 94 1005 強い雷雨 もや
18 09:23 7 4900m 27 94 1005 強いしゅう雨 もや
18 09:00 7 10km以上 27 94 1005 しゅう雨 もや
18 08:30 5 10km以上 28 89 1005 弱いしゅう雨
18 08:00 6 10km以上 27 94 1005 弱いしゅう雨
18 07:30 南南西 6 10km以上 27 89 1006 弱いしゅう雨
18 07:00 南西 5 10km以上 27 89 1006 弱いしゅう雨
18 06:30 南南西 3 10km以上 26 94 1006 弱いしゅう雨
18 06:00 南南西 4 10km以上 26 94 1006 弱いしゅう雨
18 05:30 4 10km以上 26 94 1006 弱いしゅう雨
18 05:00 4 10km以上 25 94 1006 周辺でしゅう雨
18 04:30 南南東 3 10km以上 25 94 1007
18 04:00 南東 3 10km以上 25 94 1007 周辺でしゅう雨
18 03:30 東南東 2 10km以上 25 89 1007 弱いしゅう雨
18 03:00 3 10km以上 25 89 1008 弱いしゅう雨
18 02:30 3 10km以上 25 89 1008 周辺でしゅう雨
18 02:00 3 10km以上 25 89 1009 弱いしゅう雨
18 01:30 2 10km以上 25 89 1009
18 01:00 3 10km以上 25 83 1009
18 00:30 3 10km以上 25 83 1009
18 00:00 4 10km以上 25 83 1009
17 23:30 東北東 4 10km以上 26 79 1010 弱いしゅう雨
17 23:00 4 10km以上 26 79 1010 弱いしゅう雨
17 22:30 4 10km以上 26 79 1010 弱いしゅう雨
17 22:00 5 10km以上 27 74 1010
17 21:30 5 10km以上 27 74 1010
17 21:00 7 10km以上 27 70 1010
17 20:30 6 10km以上 27 74 1010
17 20:00 5 10km以上 27 74 1010
17 19:30 5 10km以上 27 74 1010
17 19:00 5 10km以上 27 79 1010
17 18:30 6 10km以上 27 79 1010 周辺でしゅう雨
17 18:00 東北東 5 10km以上 27 79 1010
17 17:30 6 10km以上 27 79 1009 周辺でしゅう雨
17 17:11 8 10km以上 27 79 1009 弱いしゅう雨
17 17:00 東北東 6 6000m 26 84 1009 強いしゅう雨
17 16:45 6 3000m 27 79 1009 強いしゅう雨
17 16:38 7 5000m 28 74 1009 強いしゅう雨
17 16:30 8 10km以上 29 70 1008 弱いしゅう雨
17 16:00 7 10km以上 29 70 1008 弱いしゅう雨
17 15:30 7 10km以上 29 74 1008 弱いしゅう雨
17 15:00 7 10km以上 30 70 1008 弱いしゅう雨
17 14:30 8 10km以上 31 66 1008 周辺でしゅう雨
17 14:00 4 10km以上 31 75 1008
17 13:30 東北東 3 10km以上 31 79 1008
17 13:00 東北東 2 10km以上 31 75 1008
17 12:30 北東 2 10km以上 31 70 1008
17 12:00 不定 1 10km以上 31 70 1008
17 11:30 不定 1 10km以上 31 70 1008
17 11:00 不定 1 10km以上 30 70 1008
17 10:30 不定 1 10km以上 30 66 1008 弱い雨
17 10:00 東北東 2 10km以上 29 74 1008 弱い雨
17 09:30 不定 2 10km以上 30 62 1008 弱い雨
17 09:00 2 10km以上 30 62 1008 弱いしゅう雨
17 08:30 南西 3 10km以上 30 62 1008 周辺でしゅう雨
17 08:00 3 10km以上 30 66 1007 弱いしゅう雨
17 07:30 3 10km以上 29 74 1007 弱いしゅう雨
17 07:00 西 3 10km以上 29 79 1007 弱いしゅう雨
17 06:30 西南西 3 10km以上 29 74 1007 弱いしゅう雨
17 06:00 南西 3 10km以上 29 70 1006
17 05:30 西南西 4 10km以上 29 70 1006
17 05:00 西南西 4 10km以上 29 70 1006
17 04:30 西南西 3 10km以上 29 70 1005 弱いしゅう雨
17 04:00 南西 4 10km以上 29 74 1005
17 03:30 南西 4 10km以上 29 74 1005
17 03:00 南西 7 10km以上 28 79 1005
17 02:30 南南西 6 10km以上 29 74 1005 弱いしゅう雨
17 02:00 南南西 6 10km以上 29 74 1004 弱いしゅう雨
17 01:30 4 10km以上 29 74 1004
17 01:00 南南西 6 10km以上 29 74 1004 弱いしゅう雨
17 00:30 南南西 6 10km以上 29 79 1005 弱いしゅう雨
17 00:00 7 10km以上 30 70 1004 弱いしゅう雨
16 23:30 南西 6 10km以上 31 66 1004 周辺でしゅう雨
16 23:00 南西 7 10km以上 30 75 1004 弱いしゅう雨
16 22:43 南西 9 10km以上 30 75 1004 弱いしゅう雨
16 22:30 南西 9 10km以上 30 75 1004
RJTT 181230Z 33008KT CAVOK 29/19 Q1003 NOSIG RMK A2962
RJTT 181200Z 34004KT 310V020 CAVOK 29/20 Q1003 NOSIG RMK A2962
RJTT 181130Z 33008KT CAVOK 28/21 Q1003 NOSIG RMK A2962
RJTT 181100Z VRB05KT 9999 FEW030 SCT060 29/21 Q1002 BECMG 34006KT RMK 1CU030 3AC060 A2961
RJTT 181030Z VRB01KT 9999 FEW030 29/23 Q1002 BECMG 34006KT RMK 1CU030 A2960
RJTT 181000Z 22004KT 160V320 9999 FEW030 30/23 Q1002 BECMG 34006KT RMK 1CU030 A2959
RJTT 180930Z 28007KT 200V300 9999 FEW030 30/23 Q1002 NOSIG RMK 1CU030 A2959
RJTT 180900Z 20006KT 9999 FEW030 31/22 Q1001 BECMG 34008KT RMK 1CU030 A2958
RJTT 180830Z 19011KT 9999 FEW030 31/23 Q1001 NOSIG RMK 1CU030 A2956
RJTT 180800Z 21011KT 9999 FEW030 31/23 Q1000 NOSIG RMK 1CU030 A2956
RJTT 180730Z 21015KT 9999 FEW030 31/23 Q1000 NOSIG RMK 1CU030 A2955
RJTT 180700Z 21013KT 180V240 9999 FEW020 31/22 Q1000 NOSIG RMK 1CU020 A2954
RJTT 180630Z 22013KT 9999 FEW020 31/23 Q1000 NOSIG RMK 1CU020 A2953
RJTT 180600Z 20014KT 9999 FEW020 31/24 Q1000 NOSIG RMK 1CU020 A2954 MOD TURB OBS AT 0545Z RUNSO FL150 IN DES BY B788
RJTT 180532Z 22015G25KT 9999 FEW020 BKN200 31/24 Q1000 RMK 1CU020 6AC200 A2954
RJTT 180530Z 22016KT 9999 FEW020 BKN200 31/24 Q1000 NOSIG RMK 1CU020 6AC200 A2954
RJTT 180514Z 23015G25KT 190V260 9999 FEW015 SCT110 BKN190 30/24 Q1000 RMK 1CU015 3AC110 6AC190 A2955
RJTT 180500Z 22015KT 200V260 9999 FEW015 BKN110 29/24 Q1001 NOSIG RMK 1CU015 7AC110 A2956
RJTT 180430Z 22017KT 190V250 9999 FEW010 SCT130 BKN170 29/24 Q1001 NOSIG RMK 1CU010 4AC130 7AC170 A2958
RJTT 180400Z 21015KT 180V240 9999 FEW010 BKN140 29/25 Q1002 NOSIG RMK 1CU010 7AC140 A2959 MOD TURB OBS AT 0338Z RUNSO BTN FL150 AND 12000FT IN DES BY B772
RJTT 180330Z 20018KT 9999 VCSH FEW007 BKN150 28/25 Q1001 TEMPO TL0500 21020G30KT
RJTT 180300Z 20020KT 9999 FEW007 BKN150 27/26 Q1002 TEMPO 21020G30KT RMK 2CU007 7AC150 A2959
RJTT 180230Z 19019KT 9999 VCSH FEW006 BKN120 BKN/// 27/26 Q1002 TEMPO 21020G30KT RMK 1CU006 5AC120 A2959 P/FR
RJTT 180200Z 20019KT 9999 -SHRA FEW007 SCT010 BKN100 27/26 Q1004 TEMPO 21020G30KT 4000 SHRA BR
RJTT 180136Z 21017KT 8000 SHRA FEW010 SCT015 BKN100 27/25 Q1004 RMK 1CU010 3CU015 7AC100 A2966
RJTT 180130Z 21017KT 9999 -SHRA FEW010 SCT015 BKN100 27/25 Q1004 TEMPO 20018G28KT 3000 TSRA BR FEW006 BKN008 FEW020CB
RJTT 180100Z 20016KT 8000 SHRA FEW005 BKN015 BKN090 27/25 Q1005 TEMPO 20018G28KT 3000 TSRA BR FEW006 BKN008 FEW020CB RMK 1ST005 5CU015 7AC090 A2968
RJTT 180040Z 19018KT 6000 SHRA FEW005 BKN013 FEW015CB 27/26 Q1005 RMK 1ST005 7CU013 1CB015 A2968 CB 10KM N MOV NE
RJTT 180030Z 19014KT 4900 +TSRA BR FEW005 BKN013 FEW015CB 27/26 Q1005 TEMPO 3000 TSRA BR FEW006 BKN008 FEW020CB
RJTT 180023Z 19013KT 4900 +SHRA BR FEW005 BKN013 FEW015CB 27/26 Q1005 RMK 1ST005 7CU013 1CB015 A2969 MOD TURB OBS AT 2355Z KAIJI BTN 11000FT AND 13000FT IN CMB BY B763 CB 15KM W MOV E
RJTT 180000Z 18013KT 9999 SHRA BR FEW005 SCT010 BKN013 27/26 Q1005 TEMPO 3000 TSRA BR FEW006 BKN008 FEW020CB RMK 1ST005 4CU010 6CU013 A2970 5000N
RJTT 172330Z 19010KT 9999 -SHRA FEW005 SCT010 BKN013 28/26 Q1005 TEMPO 4000 -SHRA BR FEW006 BKN008 RMK 1ST005 4CU010 6CU013 A2970
RJTT 172300Z 19011KT 9999 -SHRA FEW005 SCT010 BKN013 27/26 Q1005 TEMPO 4000 -SHRA BR FEW006 BKN008 RMK 1ST005 4CU010 6CU013 A2970
RJTT 172230Z 21011KT 9999 -SHRA FEW005 SCT010 BKN014 27/25 Q1006 TEMPO FEW006 BKN008
RJTT 172200Z 22010KT 9999 -SHRA FEW006 SCT008 BKN012 27/25 Q1006 TEMPO FEW006 BKN008 RMK 1ST006 4CU008 6CU012 A2972
RJTT 172130Z 20006KT 9999 -SHRA FEW006 SCT008 BKN012 26/25 Q1006 TEMPO FEW006 BKN008 RMK 1ST006 4CU008 6CU012 A2972
RJTT 172100Z 20008KT 140V250 9999 -SHRA FEW006 BKN012 26/25 Q1006 TEMPO FEW006 BKN008 RMK 1ST006 6CU012 A2972
RJTT 172030Z 18008KT 9999 -SHRA FEW006 BKN012 26/25 Q1006 TEMPO FEW006 BKN008 RMK 1ST006 6CU012 A2972
RJTT 172000Z 17008KT 9999 VCSH FEW006 BKN012 25/24 Q1006 TEMPO FEW006 BKN008 RMK 1ST006 6CU012 A2973
RJTT 171930Z 16006KT 9999 FEW006 SCT012 BKN150 25/24 Q1007 TEMPO FEW006 BKN008 RMK 1ST006 4CU012 7AC150 A2974
RJTT 171900Z 13005KT 9999 VCSH BKN008 25/24 Q1007 NOSIG RMK 5ST008 A2974
RJTT 171830Z 12004KT 090V150 9999 -SHRA FEW006 BKN008 25/23 Q1007 NOSIG RMK 1CU006 6CU008 A2975
RJTT 171800Z 10005KT 9999 -SHRA FEW010 BKN013 25/23 Q1008 NOSIG RMK 1CU010 6CU013 A2977
RJTT 171730Z 09006KT 9999 VCSH FEW010 BKN013 25/23 Q1008 BECMG FEW010 BKN015 RMK 1CU010 6CU013 A2978
RJTT 171700Z 09005KT 9999 -SHRA FEW010 BKN013 25/23 Q1009 BECMG FEW010 BKN015 RMK 1CU010 7CU013 A2979
RJTT 171630Z 10004KT 9999 FEW012 BKN015 25/23 Q1009 NOSIG RMK 1CU012 7CU015 A2980
RJTT 171600Z 08006KT 9999 FEW010 BKN015 25/22 Q1009 NOSIG RMK 1CU010 6CU015 A2981
RJTT 171530Z 08006KT 9999 FEW015 BKN/// 25/22 Q1009 NOSIG RMK 2CU015 A2981
RJTT 171500Z 08007KT 9999 FEW015 BKN090 25/22 Q1009 NOSIG RMK 1CU015 6AC090 A2982
RJTT 171430Z 07007KT 9999 -SHRA FEW015 BKN090 26/22 Q1010 NOSIG RMK 1CU015 6AC090 A2983
RJTT 171400Z 08007KT 9999 -SHRA FEW015 BKN120 26/22 Q1010 NOSIG RMK 1CU015 6AC120 A2984
RJTT 171330Z 08008KT 9999 -SHRA FEW015 SCT020 BKN150 26/22 Q1010 NOSIG RMK 1CU015 3CU020 5AC150 A2985
RJTT 171300Z 09009KT 9999 FEW015 SCT020 BKN/// 27/22 Q1010 NOSIG RMK 1CU015 3CU020 A2984
RJTT 171230Z 09010KT 9999 FEW015 SCT025 BKN/// 27/22 Q1010 NOSIG RMK 1CU015 3CU025 A2985
RJTT 171200Z 08013KT 9999 FEW015 SCT025 BKN/// 27/21 Q1010 NOSIG RMK 1CU015 3CU025 A2984
RJTT 171130Z 08012KT 9999 FEW015 SCT025 BKN040 27/22 Q1010 NOSIG RMK 1CU015 4CU025 6SC040 A2985
RJTT 171100Z 09009KT 9999 FEW015 BKN025 27/22 Q1010 NOSIG RMK 1CU015 6SC025 A2985
RJTT 171030Z 10010KT 9999 FEW020 BKN030 27/22 Q1010 NOSIG RMK 1CU020 6CU030 A2984
RJTT 171000Z 10010KT 9999 FEW020 SCT030 BKN090 27/23 Q1010 NOSIG RMK 1CU020 4CU030 6AC090 A2984
RJTT 170930Z 10011KT 9999 VCSH FEW020 SCT030 BKN080 27/23 Q1010 NOSIG RMK 1CU020 3CU030 6AC080 A2982
RJTT 170900Z 07009KT 9999 FEW015 BKN030 27/23 Q1010 NOSIG RMK 1CU015 6SC030 A2983
RJTT 170830Z 10011KT 9999 VCSH FEW015 SCT040 BKN120 27/23 Q1009 NOSIG RMK 1CU015 4SC040 6AC120 A2982
RJTT 170811Z 08015KT 9999 -SHRA FEW015 SCT030 BKN100 27/23 Q1009 RMK 1CU015 4CU030 6AC100 A2980
RJTT 170800Z 06012KT 6000 R34L/1500VP2000U R22/P2000N R34R/1300VP2000U R05/1600VP2000N +SHRA FEW015 SCT020 BKN100 26/23 Q1009 TEMPO 4000 -TSRA BR FEW008 BKN012 FEW020CB BECMG TL0900 NSW
RJTT 170745Z 09011KT 3000 R34L/2000N R22/1400VP2000D R34R/P2000N R05/P2000N +SHRA FEW010 BKN020 27/23 Q1009 RMK 1CU010 7CU020 A2981 RI++
RJTT 170738Z 09014KT 5000 R34L/P2000N R22/P2000N R34R/P2000N R05/P2000N +SHRA FEW020 BKN035 28/23 Q1009 RMK 1CU020 7CU035 A2982
RJTT 170730Z 09016KT 9999 -SHRA FEW020 BKN035 29/23 Q1008 TEMPO 3000 -TSRA BR FEW008 BKN012 FEW020CB RMK 1CU020 7CU035 A2979
RJTT 170700Z 09014KT 9999 -SHRA FEW020 BKN040 29/23 Q1008 TEMPO FM0800 4000 -TSRA BR FEW008 BKN012 FEW020CB RMK 1CU020 7CU040 A2979
RJTT 170630Z 10014KT 9999 -SHRA FEW020 BKN035 29/24 Q1008 NOSIG RMK 1CU020 7CU035 A2979
RJTT 170600Z 09014KT 9999 -SHRA FEW020 BKN035 30/24 Q1008 NOSIG RMK 1CU020 7CU035 A2978 MOD TURB OBS AT 0548Z OVER APOLO 5000FT IN DES BY A321
RJTT 170530Z 10015KT 9999 VCSH FEW020 SCT120 31/24 Q1008 NOSIG RMK 2CU020 3AC120 A2978
RJTT 170500Z 08007KT 9999 FEW020 SCT120 31/26 Q1008 NOSIG RMK 1CU020 3AC120 A2978
RJTT 170430Z 07005KT 9999 FEW020 BKN120 31/27 Q1008 NOSIG RMK 1CU020 6AC120 A2978
RJTT 170400Z 07004KT 9999 FEW020 SCT/// 31/26 Q1008 NOSIG RMK 1CU020 A2978
RJTT 170330Z 05003KT 360V080 9999 FEW020 SCT/// 31/25 Q1008 BECMG 08006KT RMK 1CU020 A2978
RJTT 170300Z VRB02KT 9999 FEW020 BKN/// 31/25 Q1008 BECMG 08006KT RMK 1CU020 A2978
RJTT 170230Z VRB02KT 9999 FEW020 SCT150 BKN/// 31/25 Q1008 BECMG 08006KT RMK 1CU020 4AC150 A2978
RJTT 170200Z VRB02KT 9999 FEW030 BKN150 30/24 Q1008 BECMG 12006KT RMK 1CU030 7AC150 A2978
RJTT 170130Z VRB01KT 9999 -RA FEW030 BKN160 30/23 Q1008 BECMG 12006KT
RJTT 170100Z 06004KT 9999 -RA FEW030 BKN100 29/24 Q1008 BECMG 04006KT RMK 1CU030 7AS100 A2977
RJTT 170030Z VRB03KT 9999 -RA FEW030 BKN100 30/22 Q1008 BECMG 34005KT RMK 1CU030 7AS100 A2978
RJTT 170000Z 01003KT 350V070 9999 -SHRA FEW030 BKN150 30/22 Q1008 NOSIG RMK 1CU030 7AC150 A2979
RJTT 162330Z 22005KT 140V320 9999 VCSH FEW030 BKN150 30/22 Q1008 NOSIG RMK 1CU030 7AC150 A2978
RJTT 162300Z 19006KT 170V250 9999 -SHRA FEW030 BKN150 30/23 Q1007 NOSIG RMK 1CU030 7AC150 A2976
RJTT 162230Z VRB05KT 9999 -SHRA FEW030 BKN150 29/24 Q1007 BECMG 22006KT RMK 1CU030 7AC150 A2975
RJTT 162200Z 26005KT 220V300 9999 -SHRA FEW030 SCT120 BKN150 29/25 Q1007 BECMG 20006KT RMK 1CU030 4AC120 7AC150 A2975
RJTT 162130Z 25006KT 9999 -SHRA FEW030 SCT120 BKN150 29/24 Q1007 BECMG 22008KT RMK 1CU030 4AC120 6AC150 A2974
RJTT 162100Z 22006KT 9999 FEW030 SCT150 BKN/// 29/23 Q1006 NOSIG RMK 1CU030 4AC150 A2973
RJTT 162030Z 24007KT 9999 FEW030 SCT150 BKN/// 29/23 Q1006 BECMG 22008KT RMK 1CU030 4AC150 A2973
RJTT 162000Z 24008KT 9999 FEW030 BKN180 BKN/// 29/23 Q1006 BECMG 22008KT RMK 1CU030 6AC180 A2972
RJTT 161930Z 25006KT 9999 -SHRA FEW030 BKN170 29/23 Q1005 BECMG 22006KT RMK 1CU030 7AC170 A2970
RJTT 161900Z 23007KT 200V260 9999 FEW030 BKN190 29/24 Q1005 NOSIG RMK 1CU030 7AC190 A2970
RJTT 161830Z 23008KT 190V260 9999 FEW030 BKN190 29/24 Q1005 NOSIG RMK 1CU030 7AC190 A2969
RJTT 161800Z 22013KT 9999 FEW030 BKN170 BKN/// 28/24 Q1005 NOSIG RMK 1CU030 5AC170 A2969
RJTT 161730Z 20011KT 9999 -SHRA FEW030 BKN150 BKN/// 29/24 Q1005 NOSIG RMK 1CU030 5AC150 A2968
RJTT 161700Z 20011KT 9999 -SHRA FEW030 BKN150 BKN/// 29/24 Q1004 NOSIG RMK 1CU030 5AC150 A2966
RJTT 161630Z 18008KT 9999 FEW030 BKN180 BKN/// 29/24 Q1004 NOSIG RMK 1CU030 5AC180 A2967
RJTT 161600Z 21012KT 9999 -SHRA FEW030 BKN150 29/24 Q1004 NOSIG RMK 1CU030 7AC150 A2966
RJTT 161530Z 20011KT 9999 -SHRA FEW030 BKN150 29/25 Q1005 NOSIG RMK 1CU030 7AC150 A2968
RJTT 161500Z 18013KT 9999 -SHRA FEW030 BKN150 30/24 Q1004 NOSIG RMK 1CU030 7AC150 A2967
RJTT 161430Z 22011KT 9999 VCSH FEW030 SCT180 BKN/// 31/24 Q1004 NOSIG RMK 1CU030 4AC180 A2965
RJTT 161400Z 23014KT 9999 -SHRA FEW030 BKN190 BKN/// 30/25 Q1004 NOSIG RMK 1CU030 5AC190 A2965
RJTT 161343Z 22017G27KT 9999 -SHRA FEW030 BKN150 BKN/// 30/25 Q1004 RMK 1CU030 5AC150 A2965
RJTT 161330Z 23018KT 9999 FEW030 BKN150 BKN/// 30/25 Q1004 NOSIG RMK 1CU030 5AC150 A2965